createdAt,value
2018-04-26T00:00:59.096Z,1.80
2018-04-26T00:03:27.204Z,1.70
2018-04-26T00:05:55.335Z,1.90
2018-04-26T00:08:23.489Z,1.60
2018-04-26T00:10:51.643Z,2.07
2018-04-26T00:13:19.747Z,1.67
2018-04-26T00:15:47.905Z,1.90
2018-04-26T00:18:16.021Z,1.87
2018-04-26T00:20:44.165Z,1.93
2018-04-26T00:23:12.308Z,1.60
2018-04-26T00:25:40.414Z,2.10
2018-04-26T00:28:08.550Z,1.90
2018-04-26T00:30:36.695Z,1.70
2018-04-26T00:33:04.823Z,2.17
2018-04-26T00:35:32.955Z,1.97
2018-04-26T00:38:01.121Z,2.17
2018-04-26T00:40:29.261Z,1.67
2018-04-26T00:42:57.788Z,1.87
2018-04-26T00:45:25.916Z,1.67
2018-04-26T00:47:54.084Z,1.93
2018-04-26T00:50:22.166Z,1.70
2018-04-26T00:52:50.332Z,1.90
2018-04-26T00:55:18.465Z,2.20
2018-04-26T00:57:46.616Z,2.10
2018-04-26T01:00:14.752Z,1.90
2018-04-26T01:02:42.895Z,2.20
2018-04-26T01:05:11.036Z,2.40
2018-04-26T01:07:39.173Z,2.00
2018-04-26T01:10:07.304Z,1.80
2018-04-26T01:12:35.438Z,2.13
2018-04-26T01:15:03.591Z,2.47
2018-04-26T01:17:31.784Z,2.30
2018-04-26T01:20:00.026Z,3.10
2018-04-26T01:22:28.151Z,3.10
2018-04-26T01:24:56.292Z,2.13
2018-04-26T01:27:24.427Z,2.50
2018-04-26T01:29:52.573Z,2.47
2018-04-26T01:32:20.698Z,2.43
2018-04-26T01:34:48.819Z,3.40
2018-04-26T01:37:28.673Z,2.80
2018-04-26T01:39:56.824Z,3.13
2018-04-26T01:42:24.947Z,2.60
2018-04-26T01:44:53.091Z,3.00
2018-04-26T01:47:21.221Z,2.90
2018-04-26T01:49:49.334Z,2.40
2018-04-26T01:52:17.460Z,2.93
2018-04-26T01:54:45.616Z,2.57
2018-04-26T01:57:13.725Z,2.57
2018-04-26T01:59:42.035Z,2.40
2018-04-26T02:02:10.158Z,2.33
2018-04-26T02:04:38.287Z,2.60
2018-04-26T02:07:06.410Z,2.00
2018-04-26T02:09:34.547Z,2.50
2018-04-26T02:12:02.701Z,2.30
2018-04-26T02:14:30.840Z,2.07
2018-04-26T02:16:58.984Z,1.80
2018-04-26T02:19:27.106Z,2.40
2018-04-26T02:21:55.248Z,2.23
2018-04-26T02:24:23.367Z,2.07
2018-04-26T02:26:51.499Z,2.00
2018-04-26T02:29:19.647Z,2.70
2018-04-26T02:31:47.775Z,2.80
2018-04-26T02:34:15.888Z,2.73
2018-04-26T02:36:44.070Z,2.43
2018-04-26T02:39:12.183Z,2.53
2018-04-26T02:41:40.304Z,2.90
2018-04-26T02:44:08.445Z,2.80
2018-04-26T02:46:36.557Z,2.43
2018-04-26T02:49:04.705Z,2.37
2018-04-26T02:51:32.841Z,2.60
2018-04-26T02:54:01.015Z,2.70
2018-04-26T02:56:29.128Z,2.50
2018-04-26T02:58:57.257Z,2.40
2018-04-26T03:01:25.389Z,2.53
2018-04-26T03:03:53.609Z,2.63
2018-04-26T03:06:21.976Z,3.13
2018-04-26T03:08:50.092Z,3.40
2018-04-26T03:11:18.222Z,3.20
2018-04-26T03:13:46.372Z,3.37
2018-04-26T03:16:14.519Z,3.00
2018-04-26T03:18:42.654Z,4.00
2018-04-26T03:21:10.796Z,3.07
2018-04-26T03:23:38.908Z,3.20
2018-04-26T03:26:07.047Z,3.00
2018-04-26T03:28:35.184Z,3.33
2018-04-26T03:31:03.459Z,3.47
2018-04-26T03:33:31.497Z,3.23
2018-04-26T03:35:59.854Z,3.63
2018-04-26T03:38:28.005Z,3.43
2018-04-26T03:40:56.131Z,3.70
2018-04-26T03:43:24.260Z,3.43
2018-04-26T03:45:52.407Z,4.60
2018-04-26T03:48:20.533Z,4.03
2018-04-26T03:50:48.849Z,4.13
2018-04-26T03:53:16.991Z,5.00
2018-04-26T03:55:45.122Z,4.20
2018-04-26T03:58:13.274Z,3.87
2018-04-26T04:00:53.246Z,3.70
2018-04-26T04:03:33.306Z,4.00
2018-04-26T04:06:13.284Z,4.00
2018-04-26T04:08:41.438Z,3.73
2018-04-26T04:11:09.547Z,4.03
2018-04-26T04:13:37.697Z,3.77
2018-04-26T04:16:06.066Z,3.80
2018-04-26T04:18:34.217Z,4.00
2018-04-26T04:21:02.360Z,4.33
2018-04-26T04:23:30.485Z,4.30
2018-04-26T04:25:58.622Z,3.97
2018-04-26T04:28:26.766Z,4.30
2018-04-26T04:30:54.918Z,4.50
2018-04-26T04:33:23.055Z,3.90
2018-04-26T04:35:51.396Z,4.07
2018-04-26T04:38:19.544Z,3.83
2018-04-26T04:40:47.667Z,4.20
2018-04-26T04:43:15.784Z,4.10
2018-04-26T04:45:43.968Z,4.60
2018-04-26T04:48:12.100Z,3.60
2018-04-26T04:50:44.070Z,4.07
2018-04-26T04:53:12.239Z,4.13
2018-04-26T04:55:40.387Z,3.60
2018-04-26T04:58:08.524Z,4.30
2018-04-26T05:00:36.884Z,4.20
2018-04-26T05:03:05.006Z,4.40
2018-04-26T05:05:33.130Z,4.80
2018-04-26T05:08:01.286Z,4.37
2018-04-26T05:10:29.405Z,4.70
2018-04-26T05:12:57.656Z,4.43
2018-04-26T05:15:25.802Z,4.53
2018-04-26T05:17:53.938Z,4.33
2018-04-26T05:20:22.064Z,4.63
2018-04-26T05:22:50.217Z,4.63
2018-04-26T05:25:18.329Z,5.03
2018-04-26T05:27:46.467Z,4.57
2018-04-26T05:30:14.620Z,3.00
2018-04-26T05:32:42.770Z,2.67
2018-04-26T05:35:10.902Z,3.10
2018-04-26T05:37:39.036Z,2.40
2018-04-26T05:40:07.171Z,3.23
2018-04-26T05:42:35.324Z,2.43
2018-04-26T05:45:03.465Z,2.57
2018-04-26T05:47:31.582Z,2.30
2018-04-26T05:49:59.710Z,2.33
2018-04-26T05:52:27.836Z,3.03
2018-04-26T05:54:55.973Z,3.13
2018-04-26T05:57:24.113Z,2.40
2018-04-26T05:59:52.264Z,2.50
2018-04-26T06:02:20.408Z,2.30
2018-04-26T06:04:48.538Z,2.10
2018-04-26T06:07:16.673Z,2.00
2018-04-26T06:09:44.802Z,2.37
2018-04-26T06:12:12.931Z,2.77
2018-04-26T06:14:41.165Z,2.80
2018-04-26T06:17:09.322Z,2.67
2018-04-26T06:19:37.400Z,2.50
2018-04-26T06:22:05.565Z,2.53
2018-04-26T06:24:33.671Z,2.57
2018-04-26T06:27:01.799Z,2.80
2018-04-26T06:29:29.999Z,2.37
2018-04-26T06:31:58.124Z,2.40
2018-04-26T06:34:26.269Z,2.10
2018-04-26T06:36:54.451Z,2.50
2018-04-26T06:39:22.554Z,2.87
2018-04-26T06:41:50.705Z,2.53
2018-04-26T06:44:18.919Z,2.67
2018-04-26T06:46:47.039Z,2.83
2018-04-26T06:49:15.177Z,3.13
2018-04-26T06:51:43.313Z,3.40
2018-04-26T06:54:11.457Z,3.67
2018-04-26T06:56:39.574Z,3.47
2018-04-26T06:59:07.729Z,3.70
2018-04-26T07:01:35.841Z,3.60
2018-04-26T07:04:04.122Z,4.03
2018-04-26T07:06:32.267Z,5.10
2018-04-26T07:09:00.380Z,4.70
2018-04-26T07:11:28.502Z,5.90
2018-04-26T07:13:56.654Z,6.27
2018-04-26T07:16:24.791Z,6.20
2018-04-26T07:18:52.941Z,7.37
2018-04-26T07:21:21.095Z,7.60
2018-04-26T07:23:49.223Z,7.87
2018-04-26T07:26:17.343Z,8.40
2018-04-26T07:28:45.511Z,8.13
2018-04-26T07:31:13.654Z,8.67
2018-04-26T07:33:41.787Z,9.70
2018-04-26T07:36:09.945Z,10.33
2018-04-26T07:38:38.094Z,10.13
2018-04-26T07:41:06.238Z,10.97
2018-04-26T07:43:34.389Z,10.50
2018-04-26T07:46:02.504Z,11.37
2018-04-26T07:48:30.632Z,10.23
2018-04-26T07:50:58.777Z,9.93
2018-04-26T07:53:26.896Z,11.17
2018-04-26T07:55:55.021Z,10.10
2018-04-26T07:58:23.169Z,10.83
2018-04-26T08:00:51.322Z,10.53
2018-04-26T08:03:19.486Z,10.23
2018-04-26T08:05:47.649Z,10.03
2018-04-26T08:08:15.777Z,10.13
2018-04-26T08:10:43.931Z,10.93
2018-04-26T08:13:12.164Z,11.33
2018-04-26T08:15:40.284Z,9.13
2018-04-26T08:18:09.288Z,8.50
2018-04-26T08:20:37.418Z,7.70
2018-04-26T08:23:05.568Z,8.60
2018-04-26T08:25:33.681Z,9.03
2018-04-26T08:28:01.825Z,9.20
2018-04-26T08:30:29.961Z,8.80
2018-04-26T08:32:58.270Z,8.33
2018-04-26T08:35:26.415Z,9.50
2018-04-26T08:37:54.581Z,9.03
2018-04-26T08:40:22.736Z,9.20
2018-04-26T08:42:50.876Z,8.73
2018-04-26T08:45:19.018Z,8.67
2018-04-26T08:47:47.147Z,7.70
2018-04-26T08:50:15.283Z,8.10
2018-04-26T08:52:43.433Z,7.00
2018-04-26T08:55:11.563Z,8.20
2018-04-26T08:57:39.696Z,8.63
2018-04-26T09:00:07.834Z,8.60
2018-04-26T09:02:35.975Z,8.17
2018-04-26T09:05:04.115Z,7.33
2018-04-26T09:07:32.255Z,7.77
2018-04-26T09:10:00.392Z,7.30
2018-04-26T09:12:28.602Z,7.60
2018-04-26T09:14:56.731Z,6.97
2018-04-26T09:17:25.356Z,6.40
2018-04-26T09:19:53.499Z,5.70
2018-04-26T09:22:22.217Z,6.13
2018-04-26T09:24:50.350Z,5.90
2018-04-26T09:27:18.516Z,5.67
2018-04-26T09:29:46.639Z,6.00
2018-04-26T09:32:14.792Z,5.60
2018-04-26T09:34:42.934Z,5.87
2018-04-26T09:37:11.062Z,5.53
2018-04-26T09:39:39.272Z,5.60
2018-04-26T09:42:07.617Z,5.27
2018-04-26T09:44:35.757Z,5.20
2018-04-26T09:47:03.883Z,5.50
2018-04-26T09:49:32.013Z,5.00
2018-04-26T09:52:00.168Z,5.30
2018-04-26T09:54:28.284Z,4.73
2018-04-26T09:56:56.437Z,5.07
2018-04-26T09:59:24.561Z,5.30
2018-04-26T10:01:58.252Z,4.80
2018-04-26T10:04:26.432Z,5.30
2018-04-26T10:06:59.552Z,5.40
2018-04-26T10:09:27.686Z,4.80
2018-04-26T10:11:55.818Z,5.13
2018-04-26T10:14:23.963Z,5.57
2018-04-26T10:16:52.096Z,5.40
2018-04-26T10:19:20.234Z,5.27
2018-04-26T10:21:48.356Z,5.60
2018-04-26T10:24:16.482Z,4.97
2018-04-26T10:26:44.594Z,4.93
2018-04-26T10:29:12.765Z,5.47
2018-04-26T10:31:40.889Z,5.57
2018-04-26T10:34:09.036Z,5.50
2018-04-26T10:36:37.162Z,5.10
2018-04-26T10:39:05.282Z,4.43
2018-04-26T10:41:33.406Z,5.10
2018-04-26T10:44:01.549Z,4.03
2018-04-26T10:46:29.692Z,4.77
2018-04-26T10:48:57.804Z,4.53
2018-04-26T10:51:25.936Z,5.00
2018-04-26T10:53:54.056Z,4.87
2018-04-26T10:56:22.195Z,4.63
2018-04-26T10:58:50.324Z,5.03
2018-04-26T11:01:18.448Z,4.53
2018-04-26T11:03:46.600Z,4.63
2018-04-26T11:06:14.767Z,4.13
2018-04-26T11:08:42.898Z,4.00
2018-04-26T11:11:11.076Z,4.30
2018-04-26T11:13:39.179Z,4.00
2018-04-26T11:16:07.293Z,4.37
2018-04-26T11:18:35.432Z,4.07
2018-04-26T11:21:03.586Z,4.17
2018-04-26T11:23:31.726Z,3.60
2018-04-26T11:25:59.910Z,3.77
2018-04-26T11:28:28.068Z,3.80
2018-04-26T11:30:56.243Z,3.90
2018-04-26T11:33:24.339Z,4.03
2018-04-26T11:35:52.480Z,4.13
2018-04-26T11:38:20.599Z,4.03
2018-04-26T11:40:48.727Z,4.33
2018-04-26T11:43:16.861Z,3.80
2018-04-26T11:45:44.996Z,3.70
2018-04-26T11:48:13.138Z,5.00
2018-04-26T11:50:41.270Z,4.23
2018-04-26T11:53:09.478Z,4.23
2018-04-26T11:55:37.618Z,4.63
2018-04-26T11:58:05.743Z,4.20
2018-04-26T12:00:33.879Z,4.90
2018-04-26T12:03:02.007Z,4.40
2018-04-26T12:05:30.156Z,4.50
2018-04-26T12:07:58.274Z,4.90
2018-04-26T12:10:26.390Z,4.27
2018-04-26T12:12:54.549Z,5.03
2018-04-26T12:15:22.684Z,4.23
2018-04-26T12:17:50.801Z,4.57
2018-04-26T12:20:18.937Z,4.17
2018-04-26T12:22:47.084Z,4.30
2018-04-26T12:25:15.198Z,4.73
2018-04-26T12:27:43.358Z,3.67
2018-04-26T12:30:11.486Z,4.57
2018-04-26T12:32:39.689Z,4.10
2018-04-26T12:35:07.988Z,4.07
2018-04-26T12:37:35.954Z,4.00
2018-04-26T12:40:04.091Z,4.80
2018-04-26T12:42:32.261Z,4.27
2018-04-26T12:45:00.384Z,5.10
2018-04-26T12:47:28.513Z,4.97
2018-04-26T12:49:56.672Z,5.17
2018-04-26T12:52:24.814Z,4.83
2018-04-26T12:54:52.920Z,4.37
2018-04-26T12:57:21.529Z,4.30
2018-04-26T12:59:49.677Z,4.33
2018-04-26T13:02:17.820Z,4.30
2018-04-26T13:04:45.959Z,4.00
2018-04-26T13:07:14.072Z,4.30
2018-04-26T13:09:42.195Z,4.53
2018-04-26T13:12:10.344Z,4.63
2018-04-26T13:14:38.496Z,4.33
2018-04-26T13:17:06.645Z,4.57
2018-04-26T13:19:34.760Z,4.37
2018-04-26T13:22:02.884Z,3.67
2018-04-26T13:24:31.084Z,2.80
2018-04-26T13:26:59.203Z,2.87
2018-04-26T13:29:27.339Z,2.57
2018-04-26T13:31:55.476Z,2.63
2018-04-26T13:34:23.609Z,2.77
2018-04-26T13:36:52.556Z,2.77
2018-04-26T13:39:20.687Z,2.90
2018-04-26T13:41:48.803Z,2.73
2018-04-26T13:44:16.945Z,2.90
2018-04-26T13:46:45.066Z,3.67
2018-04-26T13:49:13.196Z,3.93
2018-04-26T13:51:41.327Z,3.93
2018-04-26T13:54:09.464Z,4.03
2018-04-26T13:56:37.587Z,4.87
2018-04-26T13:59:05.712Z,4.27
2018-04-26T14:01:33.835Z,4.17
2018-04-26T14:04:01.993Z,4.07
2018-04-26T14:06:30.097Z,4.63
2018-04-26T14:08:58.240Z,4.60
2018-04-26T14:11:26.362Z,4.70
2018-04-26T14:13:54.472Z,4.30
2018-04-26T14:16:22.588Z,4.00
2018-04-26T14:18:50.730Z,3.60
2018-04-26T14:21:18.858Z,4.40
2018-04-26T14:23:46.980Z,4.60
2018-04-26T14:26:15.141Z,4.40
2018-04-26T14:28:43.266Z,3.07
2018-04-26T14:31:11.383Z,2.20
2018-04-26T14:33:39.532Z,2.03
2018-04-26T14:36:07.651Z,2.27
2018-04-26T14:38:35.765Z,3.13
2018-04-26T14:41:03.887Z,3.80
2018-04-26T14:43:32.031Z,3.80
2018-04-26T14:46:00.120Z,3.80
2018-04-26T14:48:28.264Z,3.50
2018-04-26T14:50:56.400Z,3.63
2018-04-26T14:53:24.605Z,3.63
2018-04-26T14:55:52.815Z,3.80
2018-04-26T14:58:20.928Z,4.17
2018-04-26T15:00:49.055Z,2.80
2018-04-26T15:03:17.212Z,2.70
2018-04-26T15:05:45.326Z,2.30
2018-04-26T15:08:13.454Z,1.90
2018-04-26T15:10:41.598Z,2.23
2018-04-26T15:13:09.710Z,2.37
2018-04-26T15:15:37.816Z,2.20
2018-04-26T15:18:06.037Z,2.20
2018-04-26T15:20:34.181Z,1.90
2018-04-26T15:23:02.313Z,2.40
2018-04-26T15:25:30.469Z,2.83
2018-04-26T15:27:58.663Z,3.00
2018-04-26T15:30:26.783Z,3.30
2018-04-26T15:32:54.950Z,2.93
2018-04-26T15:35:23.076Z,3.20
2018-04-26T15:37:51.204Z,2.57
2018-04-26T15:40:19.344Z,2.70
2018-04-26T15:42:47.466Z,2.90
2018-04-26T15:45:15.597Z,2.50
2018-04-26T15:47:43.724Z,2.60
2018-04-26T15:50:11.885Z,3.03
2018-04-26T15:52:57.586Z,2.47
2018-04-26T15:55:37.631Z,2.37
2018-04-26T16:01:34.114Z,2.50
2018-04-26T16:04:13.996Z,2.33
2018-04-26T16:06:53.865Z,2.33
2018-04-26T16:09:34.154Z,2.20
2018-04-26T16:15:32.253Z,2.17
2018-04-26T16:18:18.044Z,2.20
2018-04-26T16:24:26.783Z,2.20
2018-04-26T16:27:12.663Z,1.90
2018-04-26T16:29:52.620Z,2.57
2018-04-26T16:32:39.208Z,2.67
2018-04-26T16:35:21.084Z,3.27
2018-04-26T16:38:06.871Z,3.50
2018-04-26T16:40:35.071Z,3.80
2018-04-26T16:43:03.277Z,4.03
2018-04-26T16:45:31.491Z,3.57
2018-04-26T16:47:59.636Z,3.50
2018-04-26T16:50:27.766Z,3.73
2018-04-26T16:52:55.930Z,3.67
2018-04-26T16:55:24.230Z,3.60
2018-04-26T16:57:52.358Z,2.83
2018-04-26T17:00:20.484Z,2.77
2018-04-26T17:02:48.596Z,2.70
2018-04-26T17:05:16.720Z,2.57
2018-04-26T17:07:44.856Z,2.60
2018-04-26T17:10:12.961Z,3.57
2018-04-26T17:12:41.105Z,3.70
2018-04-26T17:15:09.253Z,4.03
2018-04-26T17:17:37.375Z,3.97
2018-04-26T17:20:05.498Z,3.80
2018-04-26T17:22:33.625Z,3.50
2018-04-26T17:25:01.743Z,3.33
2018-04-26T17:27:29.848Z,3.50
2018-04-26T17:29:58.029Z,3.67
2018-04-26T17:32:26.146Z,3.13
2018-04-26T17:34:54.281Z,3.13
2018-04-26T17:37:22.407Z,3.40
2018-04-26T17:39:50.512Z,3.40
2018-04-26T17:42:18.706Z,2.60
2018-04-26T17:44:46.770Z,2.60
2018-04-26T17:47:14.876Z,2.67
2018-04-26T17:49:43.000Z,2.37
2018-04-26T17:52:13.033Z,2.67
2018-04-26T17:54:41.158Z,2.57
2018-04-26T17:57:09.270Z,2.30
2018-04-26T17:59:37.408Z,3.00
2018-04-26T18:02:05.528Z,2.30
2018-04-26T18:04:33.637Z,2.50
2018-04-26T18:07:01.783Z,2.47
2018-04-26T18:09:29.943Z,2.40
2018-04-26T18:11:58.043Z,2.33
2018-04-26T18:14:26.182Z,2.40
2018-04-26T18:16:54.302Z,2.37
2018-04-26T18:19:22.441Z,2.23
2018-04-26T18:21:50.589Z,2.43
2018-04-26T18:24:18.716Z,2.10
2018-04-26T18:26:46.839Z,2.30
2018-04-26T18:29:14.985Z,2.10
2018-04-26T18:31:43.107Z,2.60
2018-04-26T18:34:11.226Z,2.20
2018-04-26T18:36:39.377Z,2.90
2018-04-26T18:39:07.500Z,2.70
2018-04-26T18:41:35.632Z,2.50
2018-04-26T18:44:03.770Z,2.57
2018-04-26T18:46:31.947Z,2.70
2018-04-26T18:49:00.006Z,2.93
2018-04-26T18:51:28.133Z,2.90
2018-04-26T18:53:56.255Z,2.87
2018-04-26T18:56:24.364Z,3.03
2018-04-26T18:58:52.502Z,3.10
2018-04-26T19:01:20.627Z,3.30
2018-04-26T19:03:48.736Z,3.33
2018-04-26T19:06:16.878Z,2.67
2018-04-26T19:08:45.024Z,3.00
2018-04-26T19:11:13.161Z,3.00
2018-04-26T19:13:41.321Z,2.60
2018-04-26T19:16:09.468Z,3.03
2018-04-26T19:18:37.597Z,3.13
2018-04-26T19:21:05.850Z,2.87
2018-04-26T19:23:34.042Z,3.47
2018-04-26T19:26:02.164Z,2.90
2018-04-26T19:28:30.313Z,3.03
2018-04-26T19:30:58.420Z,2.77
2018-04-26T19:33:26.552Z,2.80
2018-04-26T19:35:54.686Z,3.23
2018-04-26T19:38:22.828Z,3.13
2018-04-26T19:40:50.951Z,3.20
2018-04-26T19:43:19.101Z,2.70
2018-04-26T19:45:47.233Z,2.73
2018-04-26T19:48:15.340Z,3.40
2018-04-26T19:50:43.468Z,2.50
2018-04-26T19:53:11.594Z,2.87
2018-04-26T19:55:39.732Z,2.90
2018-04-26T19:58:07.852Z,2.77
2018-04-26T20:00:35.965Z,3.03
2018-04-26T20:03:04.111Z,3.00
2018-04-26T20:05:32.257Z,3.13
2018-04-26T20:08:00.377Z,2.70
2018-04-26T20:10:31.978Z,2.87
2018-04-26T20:13:00.103Z,2.70
2018-04-26T20:15:28.223Z,2.80
2018-04-26T20:17:56.335Z,2.73
2018-04-26T20:20:24.479Z,2.90
2018-04-26T20:22:52.645Z,3.23
2018-04-26T20:25:20.786Z,3.07
2018-04-26T20:27:48.921Z,2.60
2018-04-26T20:30:17.042Z,3.20
2018-04-26T20:32:45.185Z,3.20
2018-04-26T20:35:13.328Z,2.73
2018-04-26T20:37:41.436Z,2.83
2018-04-26T20:40:09.585Z,2.80
2018-04-26T20:42:37.737Z,2.83
2018-04-26T20:45:05.870Z,2.80
2018-04-26T20:47:33.991Z,2.93
2018-04-26T20:50:02.438Z,2.63
2018-04-26T20:52:30.623Z,3.00
2018-04-26T20:54:58.800Z,3.00
2018-04-26T20:57:27.020Z,2.77
2018-04-26T20:59:55.142Z,2.80
2018-04-26T21:02:23.434Z,2.77
2018-04-26T21:04:51.582Z,2.80
2018-04-26T21:07:19.759Z,2.60
2018-04-26T21:09:48.001Z,3.00
2018-04-26T21:12:16.223Z,3.10
2018-04-26T21:14:44.420Z,2.80
2018-04-26T21:17:12.626Z,3.30
2018-04-26T21:19:40.821Z,2.73
2018-04-26T21:22:09.018Z,3.97
2018-04-26T21:24:37.196Z,3.23
2018-04-26T21:27:05.674Z,3.30
2018-04-26T21:29:33.854Z,3.40
2018-04-26T21:32:02.039Z,3.50
2018-04-26T21:34:30.227Z,3.30
2018-04-26T21:36:58.406Z,3.60
2018-04-26T21:39:26.618Z,4.03
2018-04-26T21:41:54.822Z,3.40
2018-04-26T21:44:22.993Z,3.10
2018-04-26T21:46:51.164Z,3.00
2018-04-26T21:49:18.812Z,3.60
2018-04-26T21:51:52.645Z,3.27
2018-04-26T21:54:26.428Z,3.13
2018-04-26T21:57:00.273Z,3.10
2018-04-26T21:59:34.014Z,3.30
2018-04-26T22:02:07.751Z,3.00
2018-04-26T22:04:53.723Z,3.27
2018-04-26T22:07:21.910Z,3.20
2018-04-26T22:09:50.098Z,3.67
2018-04-26T22:12:18.482Z,3.17
2018-04-26T22:14:47.004Z,2.93
2018-04-26T22:17:15.226Z,3.07
2018-04-26T22:19:43.482Z,3.03
2018-04-26T22:22:14.602Z,3.73
2018-04-26T22:24:42.871Z,3.50
2018-04-26T22:27:11.119Z,4.07
2018-04-26T22:29:39.308Z,3.50
2018-04-26T22:32:07.526Z,3.53
2018-04-26T22:34:35.730Z,3.57
2018-04-26T22:37:03.919Z,3.70
2018-04-26T22:39:32.138Z,3.80
2018-04-26T22:42:00.426Z,3.90
2018-04-26T22:44:28.731Z,3.97
2018-04-26T22:46:56.983Z,3.63
2018-04-26T22:49:25.191Z,3.37
2018-04-26T22:51:53.404Z,3.00
2018-04-26T22:54:21.590Z,3.47
2018-04-26T22:56:49.835Z,3.43
2018-04-26T22:59:18.034Z,3.20
2018-04-26T23:01:46.226Z,3.57
2018-04-26T23:04:14.483Z,3.73
2018-04-26T23:06:42.720Z,3.73
2018-04-26T23:09:10.912Z,3.87
2018-04-26T23:11:39.146Z,3.50
2018-04-26T23:14:07.340Z,3.27
2018-04-26T23:16:35.531Z,3.73
2018-04-26T23:19:03.770Z,3.97
2018-04-26T23:21:31.950Z,4.20
2018-04-26T23:24:00.115Z,4.03
2018-04-26T23:26:28.315Z,3.57
2018-04-26T23:28:56.480Z,3.50
2018-04-26T23:31:24.671Z,3.80
2018-04-26T23:33:52.882Z,4.03
2018-04-26T23:36:21.074Z,3.90
2018-04-26T23:38:49.284Z,4.17
2018-04-26T23:41:17.522Z,4.40
2018-04-26T23:43:48.975Z,4.07
2018-04-26T23:46:17.138Z,3.83
2018-04-26T23:48:45.338Z,4.23
2018-04-26T23:51:13.519Z,4.37
2018-04-26T23:53:41.702Z,3.93
2018-04-26T23:56:09.875Z,3.90
2018-04-26T23:58:38.046Z,4.30
